College Place, Washington
Current Conditions -  °F | °C
As of 2:53 AM on Tuesday 21 Oct 2014 (Local Time) from KALW Reporting Station
Overcast Overcast  
Wind Chill: 54°   Ceiling: 6500
Heat Index: 54°   Visibility: 10mi
Dew Point: 47°   Wind: 9mph
Humidity: 77%   Direction: 200°SSW
Pressure: 29.87"   Gusts: NA
Location:  46.03°N, 118.38°W
Report Text: KALW 210953Z AUTO 20008KT 10SM OVC065 12/08 A2987 RMK AO2 SLP111 T01220083
Loading
Personal Weather Stations






























Interactive Weather Map
Tropical Storm Tracking
New forecast layout! Learn more

10-Day Weather Forecast

Advertisements
Track Severe Weather on mobile